createdAt,value
2018-04-27T00:01:00.737Z,97875.06
2018-04-27T00:03:28.946Z,97877.59
2018-04-27T00:05:57.000Z,97875.70
2018-04-27T00:08:24.517Z,97885.16
2018-04-27T00:10:52.305Z,97885.91
2018-04-27T00:13:19.795Z,97881.70
2018-04-27T00:15:47.725Z,97884.91
2018-04-27T00:18:15.170Z,97874.01
2018-04-27T00:20:42.640Z,97878.09
2018-04-27T00:23:10.072Z,97877.86
2018-04-27T00:25:37.520Z,97879.63
2018-04-27T00:28:04.954Z,97876.00
2018-04-27T00:30:32.485Z,97873.48
2018-04-27T00:33:00.365Z,97870.89
2018-04-27T00:35:27.887Z,97869.23
2018-04-27T00:37:55.421Z,97866.39
2018-04-27T00:40:23.249Z,97857.55
2018-04-27T00:42:50.679Z,97859.53
2018-04-27T00:45:19.058Z,97861.96
2018-04-27T00:47:46.733Z,97854.31
2018-04-27T00:50:14.786Z,97856.91
2018-04-27T00:52:54.071Z,97855.59
2018-04-27T00:55:21.520Z,97849.75
2018-04-27T00:57:49.244Z,97848.55
2018-04-27T01:00:16.704Z,97843.23
2018-04-27T01:02:44.173Z,97850.50
2018-04-27T01:05:11.790Z,97847.80
2018-04-27T01:07:39.262Z,97848.37
2018-04-27T01:10:06.828Z,97848.24
2018-04-27T01:12:34.273Z,97851.26
2018-04-27T01:15:01.735Z,97852.34
2018-04-27T01:17:29.228Z,97843.98
2018-04-27T01:19:56.762Z,97834.88
2018-04-27T01:22:24.204Z,97839.02
2018-04-27T01:24:51.655Z,97839.95
2018-04-27T01:27:19.148Z,97833.12
2018-04-27T01:29:46.709Z,97837.22
2018-04-27T01:32:14.310Z,97832.86
2018-04-27T01:34:41.963Z,97830.98
2018-04-27T01:37:09.477Z,97827.64
2018-04-27T01:39:36.980Z,97822.80
2018-04-27T01:42:04.782Z,97827.89
2018-04-27T01:44:32.465Z,97815.27
2018-04-27T01:46:59.942Z,97820.24
2018-04-27T01:49:27.388Z,97817.96
2018-04-27T01:51:55.341Z,97817.42
2018-04-27T01:54:22.855Z,97814.75
2018-04-27T01:56:50.325Z,97812.74
2018-04-27T01:59:17.770Z,97800.45
2018-04-27T02:01:45.347Z,97802.21
2018-04-27T02:04:12.908Z,97797.39
2018-04-27T02:06:40.553Z,97789.95
2018-04-27T02:09:08.055Z,97782.47
2018-04-27T02:11:35.655Z,97786.62
2018-04-27T02:14:03.264Z,97776.19
2018-04-27T02:16:30.740Z,97782.28
2018-04-27T02:18:58.259Z,97772.09
2018-04-27T02:21:27.365Z,97772.23
2018-04-27T02:23:54.826Z,97777.86
2018-04-27T02:26:22.270Z,97768.34
2018-04-27T02:28:49.809Z,97769.28
2018-04-27T02:31:17.412Z,97772.23
2018-04-27T02:33:44.967Z,97782.36
2018-04-27T02:36:12.442Z,97772.17
2018-04-27T02:38:39.880Z,97756.77
2018-04-27T02:41:07.323Z,97761.44
2018-04-27T02:43:34.771Z,97759.97
2018-04-27T02:46:02.192Z,97762.81
2018-04-27T02:48:29.633Z,97755.03
2018-04-27T02:50:57.114Z,97742.31
2018-04-27T02:53:24.665Z,97740.73
2018-04-27T02:55:52.135Z,97746.36
2018-04-27T02:58:19.723Z,97754.28
2018-04-27T03:00:47.251Z,97749.73
2018-04-27T03:03:14.759Z,97743.70
2018-04-27T03:05:42.220Z,97734.72
2018-04-27T03:08:09.675Z,97725.88
2018-04-27T03:10:37.121Z,97726.01
2018-04-27T03:13:04.542Z,97727.88
2018-04-27T03:15:32.034Z,97720.20
2018-04-27T03:17:59.471Z,97722.59
2018-04-27T03:20:27.001Z,97717.09
2018-04-27T03:22:54.482Z,97706.37
2018-04-27T03:25:21.898Z,97704.63
2018-04-27T03:27:49.873Z,97701.56
2018-04-27T03:30:17.385Z,97699.89
2018-04-27T03:32:44.843Z,97701.79
2018-04-27T03:35:12.919Z,97702.36
2018-04-27T03:37:40.382Z,97696.75
2018-04-27T03:40:07.910Z,97705.77
2018-04-27T03:42:36.468Z,97699.45
2018-04-27T03:45:03.945Z,97697.63
2018-04-27T03:47:31.463Z,97693.73
2018-04-27T03:49:58.967Z,97685.96
2018-04-27T03:52:26.444Z,97685.12
2018-04-27T03:54:53.889Z,97683.23
2018-04-27T03:57:21.345Z,97668.50
2018-04-27T04:00:00.628Z,97666.77
2018-04-27T04:02:39.738Z,97659.58
2018-04-27T04:05:19.068Z,97656.51
2018-04-27T04:07:47.495Z,97652.69
2018-04-27T04:10:14.951Z,97652.70
2018-04-27T04:12:42.380Z,97639.89
2018-04-27T04:15:10.225Z,97643.64
2018-04-27T04:17:37.860Z,97644.84
2018-04-27T04:20:05.610Z,97640.13
2018-04-27T04:22:33.067Z,97632.63
2018-04-27T04:25:00.868Z,97638.83
2018-04-27T04:27:28.361Z,97637.48
2018-04-27T04:29:55.814Z,97628.47
2018-04-27T04:32:23.450Z,97630.72
2018-04-27T04:34:50.830Z,97633.16
2018-04-27T04:37:18.335Z,97630.85
2018-04-27T04:39:45.795Z,97623.17
2018-04-27T04:42:13.244Z,97626.38
2018-04-27T04:44:40.672Z,97629.19
2018-04-27T04:47:08.164Z,97625.77
2018-04-27T04:49:35.896Z,97624.02
2018-04-27T04:52:03.344Z,97622.55
2018-04-27T04:54:30.779Z,97620.45
2018-04-27T04:56:58.235Z,97620.16
2018-04-27T04:59:25.685Z,97614.47
2018-04-27T05:01:53.126Z,97618.19
2018-04-27T05:04:20.560Z,97620.59
2018-04-27T05:06:48.021Z,97620.71
2018-04-27T05:09:15.473Z,97629.55
2018-04-27T05:11:43.906Z,97625.05
2018-04-27T05:14:11.501Z,97623.82
2018-04-27T05:16:39.028Z,97617.14
2018-04-27T05:19:06.774Z,97611.20
2018-04-27T05:21:34.234Z,97611.59
2018-04-27T05:24:01.920Z,97608.18
2018-04-27T05:26:29.405Z,97602.30
2018-04-27T05:28:56.995Z,97589.55
2018-04-27T05:31:24.541Z,97595.44
2018-04-27T05:33:51.990Z,97584.13
2018-04-27T05:36:19.515Z,97589.50
2018-04-27T05:38:47.059Z,97597.38
2018-04-27T05:41:14.668Z,97594.45
2018-04-27T05:43:42.160Z,97596.83
2018-04-27T05:46:10.292Z,97593.39
2018-04-27T05:48:39.062Z,97590.82
2018-04-27T05:51:06.530Z,97584.19
2018-04-27T05:53:34.007Z,97587.06
2018-04-27T05:56:01.633Z,97581.25
2018-04-27T05:58:29.105Z,97578.41
2018-04-27T06:00:56.545Z,97582.30
2018-04-27T06:03:24.107Z,97575.44
2018-04-27T06:05:51.548Z,97574.91
2018-04-27T06:08:18.994Z,97563.08
2018-04-27T06:10:46.824Z,97572.85
2018-04-27T06:13:15.102Z,97567.92
2018-04-27T06:15:42.569Z,97556.88
2018-04-27T06:18:10.007Z,97558.66
2018-04-27T06:20:37.464Z,97546.95
2018-04-27T06:23:04.938Z,97548.59
2018-04-27T06:25:32.491Z,97538.92
2018-04-27T06:28:00.252Z,97541.89
2018-04-27T06:30:27.773Z,97546.03
2018-04-27T06:32:55.222Z,97540.64
2018-04-27T06:35:22.688Z,97534.23
2018-04-27T06:37:50.320Z,97521.53
2018-04-27T06:40:18.741Z,97522.41
2018-04-27T06:42:46.191Z,97528.32
2018-04-27T06:45:13.664Z,97519.03
2018-04-27T06:47:41.227Z,97512.83
2018-04-27T06:50:08.975Z,97509.25
2018-04-27T06:52:36.534Z,97506.63
2018-04-27T06:55:08.838Z,97506.61
2018-04-27T06:57:36.274Z,97504.02
2018-04-27T07:00:03.992Z,97495.96
2018-04-27T07:02:31.464Z,97489.95
2018-04-27T07:04:59.140Z,97480.54
2018-04-27T07:07:26.746Z,97475.69
2018-04-27T07:09:54.228Z,97476.84
2018-04-27T07:12:21.766Z,97467.17
2018-04-27T07:14:49.327Z,97466.66
2018-04-27T07:17:16.869Z,97463.22
2018-04-27T07:19:44.395Z,97464.42
2018-04-27T07:22:11.880Z,97460.36
2018-04-27T07:24:39.352Z,97457.50
2018-04-27T07:27:07.413Z,97451.16
2018-04-27T07:29:34.873Z,97446.32
2018-04-27T07:32:02.507Z,97451.17
2018-04-27T07:34:30.070Z,97448.33
2018-04-27T07:36:57.728Z,97442.76
2018-04-27T07:39:25.207Z,97428.20
2018-04-27T07:41:52.649Z,97427.31
2018-04-27T07:44:20.102Z,97430.74
2018-04-27T07:46:47.582Z,97432.09
2018-04-27T07:49:15.028Z,97423.52
2018-04-27T07:51:42.493Z,97426.28
2018-04-27T07:54:09.946Z,97420.42
2018-04-27T07:56:37.583Z,97421.20
2018-04-27T07:59:05.154Z,97415.56
2018-04-27T08:01:33.435Z,97410.01
2018-04-27T08:04:00.997Z,97410.13
2018-04-27T08:06:28.596Z,97397.77
2018-04-27T08:08:56.143Z,97400.57
2018-04-27T08:11:23.672Z,97394.77
2018-04-27T08:13:51.256Z,97391.16
2018-04-27T08:16:18.693Z,97386.72
2018-04-27T08:18:46.238Z,97385.36
2018-04-27T08:21:13.743Z,97383.31
2018-04-27T08:23:41.180Z,97374.80
2018-04-27T08:26:08.617Z,97370.73
2018-04-27T08:28:37.015Z,97359.34
2018-04-27T08:31:04.523Z,97356.37
2018-04-27T08:33:32.059Z,97356.55
2018-04-27T08:35:59.652Z,97358.34
2018-04-27T08:38:27.219Z,97348.00
2018-04-27T08:40:54.925Z,97341.42
2018-04-27T08:43:22.423Z,97345.35
2018-04-27T08:45:49.991Z,97345.63
2018-04-27T08:48:17.439Z,97340.17
2018-04-27T08:50:44.922Z,97342.46
2018-04-27T08:53:12.596Z,97336.67
2018-04-27T08:55:40.025Z,97336.08
2018-04-27T08:58:07.635Z,97330.83
2018-04-27T09:00:35.292Z,97323.52
2018-04-27T09:03:02.857Z,97312.95
2018-04-27T09:05:31.159Z,97306.42
2018-04-27T09:07:58.633Z,97304.27
2018-04-27T09:10:26.126Z,97294.84
2018-04-27T09:12:53.632Z,97293.09
2018-04-27T09:15:21.328Z,97294.02
2018-04-27T09:17:48.765Z,97292.38
2018-04-27T09:20:16.312Z,97287.34
2018-04-27T09:22:44.149Z,97280.88
2018-04-27T09:25:11.684Z,97287.11
2018-04-27T09:27:40.033Z,97286.15
2018-04-27T09:30:07.610Z,97277.18
2018-04-27T09:32:35.169Z,97275.53
2018-04-27T09:35:02.686Z,97271.89
2018-04-27T09:37:30.285Z,97274.55
2018-04-27T09:39:57.738Z,97259.81
2018-04-27T09:42:25.833Z,97259.38
2018-04-27T09:44:53.386Z,97260.10
2018-04-27T09:47:21.041Z,97258.41
2018-04-27T09:49:48.729Z,97253.20
2018-04-27T09:52:18.126Z,97245.33
2018-04-27T09:54:45.776Z,97236.70
2018-04-27T09:57:14.452Z,97228.13
2018-04-27T09:59:42.014Z,97231.06
2018-04-27T10:02:09.541Z,97230.06
2018-04-27T10:04:37.982Z,97232.30
2018-04-27T10:07:05.569Z,97229.13
2018-04-27T10:09:33.240Z,97230.77
2018-04-27T10:12:00.825Z,97230.98
2018-04-27T10:14:28.313Z,97213.55
2018-04-27T10:16:55.831Z,97210.30
2018-04-27T10:19:23.426Z,97209.33
2018-04-27T10:21:51.072Z,97211.67
2018-04-27T10:24:18.640Z,97219.35
2018-04-27T10:26:46.119Z,97218.61
2018-04-27T10:29:13.661Z,97206.61
2018-04-27T10:31:41.246Z,97199.45
2018-04-27T10:34:08.912Z,97174.14
2018-04-27T10:36:37.643Z,97195.72
2018-04-27T10:39:05.966Z,97189.83
2018-04-27T10:41:33.531Z,97188.18
2018-04-27T10:44:01.327Z,97185.78
2018-04-27T10:46:29.031Z,97187.50
2018-04-27T10:48:57.482Z,97180.25
2018-04-27T10:51:25.028Z,97169.40
2018-04-27T10:53:52.549Z,97166.66
2018-04-27T10:56:20.056Z,97161.99
2018-04-27T10:58:47.629Z,97160.84
2018-04-27T11:01:15.190Z,97158.80
2018-04-27T11:03:42.660Z,97159.98
2018-04-27T11:06:11.004Z,97138.33
2018-04-27T11:08:38.606Z,97141.34
2018-04-27T11:11:06.262Z,97135.97
2018-04-27T11:13:33.874Z,97135.31
2018-04-27T11:16:01.363Z,97114.73
2018-04-27T11:18:29.814Z,97117.34
2018-04-27T11:20:57.566Z,97116.43
2018-04-27T11:23:25.004Z,97113.89
2018-04-27T11:25:52.525Z,97106.13
2018-04-27T11:28:19.979Z,97110.91
2018-04-27T11:30:47.440Z,97108.85
2018-04-27T11:33:15.048Z,97103.55
2018-04-27T11:35:42.629Z,97098.71
2018-04-27T11:38:10.211Z,97090.63
2018-04-27T11:40:37.845Z,97089.56
2018-04-27T11:43:05.321Z,97080.34
2018-04-27T11:45:32.790Z,97080.49
2018-04-27T11:48:00.287Z,97081.03
2018-04-27T11:50:27.809Z,97073.42
2018-04-27T11:52:55.322Z,97073.92
2018-04-27T11:55:25.368Z,97069.94
2018-04-27T11:57:56.824Z,97063.62
2018-04-27T12:03:52.689Z,97054.27
2018-04-27T12:06:28.064Z,97049.31
2018-04-27T12:08:57.185Z,97055.66
2018-04-27T12:11:25.534Z,97049.34
2018-04-27T12:13:54.043Z,97047.30
2018-04-27T12:16:21.959Z,97051.34
2018-04-27T12:18:50.127Z,97056.69
2018-04-27T12:21:18.927Z,97051.34
2018-04-27T12:23:49.417Z,97045.97
2018-04-27T12:29:28.337Z,97040.69
2018-04-27T12:31:56.053Z,97038.19
2018-04-27T12:34:23.559Z,97038.64
2018-04-27T12:36:51.213Z,97035.76
2018-04-27T12:39:18.860Z,97030.70
2018-04-27T12:41:47.369Z,97022.45
2018-04-27T12:44:14.828Z,97018.30
2018-04-27T12:46:42.432Z,97016.27
2018-04-27T12:49:09.965Z,97018.50
2018-04-27T12:51:37.607Z,97020.63
2018-04-27T12:54:05.503Z,97015.16
2018-04-27T12:56:33.469Z,97016.59
2018-04-27T12:59:00.994Z,97011.23
2018-04-27T13:01:28.499Z,97009.66
2018-04-27T13:03:56.118Z,96995.34
2018-04-27T13:06:25.410Z,96998.70
2018-04-27T13:08:53.914Z,96991.03
2018-04-27T13:11:21.379Z,96991.93
2018-04-27T13:13:49.734Z,96987.28
2018-04-27T13:16:17.220Z,96984.28
2018-04-27T13:18:44.797Z,96979.17
2018-04-27T13:21:12.252Z,96981.87
2018-04-27T13:23:39.783Z,96973.63
2018-04-27T13:26:07.244Z,96968.42
2018-04-27T13:28:35.201Z,96970.62
2018-04-27T13:31:02.777Z,96958.59
2018-04-27T13:33:30.385Z,96967.32
2018-04-27T13:35:57.888Z,96965.84
2018-04-27T13:38:25.522Z,96968.31
2018-04-27T13:40:53.723Z,96977.25
2018-04-27T13:43:21.581Z,96975.14
2018-04-27T13:45:49.981Z,96980.28
2018-04-27T13:48:17.474Z,96979.54
2018-04-27T13:50:45.065Z,96987.62
2018-04-27T13:53:12.712Z,96990.36
2018-04-27T13:55:40.222Z,96981.42
2018-04-27T13:58:07.746Z,96974.73
2018-04-27T14:00:35.233Z,96969.24
2018-04-27T14:03:02.731Z,96966.05
2018-04-27T14:05:30.337Z,96966.63
2018-04-27T14:07:57.736Z,96960.17
2018-04-27T14:10:26.690Z,96958.41
2018-04-27T14:12:54.155Z,96954.44
2018-04-27T14:15:21.632Z,96954.50
2018-04-27T14:17:49.077Z,96951.26
2018-04-27T14:20:16.622Z,96947.64
2018-04-27T14:22:44.217Z,96938.39
2018-04-27T14:25:11.710Z,96935.73
2018-04-27T14:27:39.162Z,96929.91
2018-04-27T14:30:07.025Z,96924.29
2018-04-27T14:32:34.567Z,96924.44
2018-04-27T14:35:02.056Z,96921.67
2018-04-27T14:37:29.587Z,96915.00
2018-04-27T14:39:57.347Z,96908.97
2018-04-27T14:42:24.868Z,96908.95
2018-04-27T14:44:52.417Z,96899.86
2018-04-27T14:47:20.029Z,96894.10
2018-04-27T14:49:47.536Z,96890.07
2018-04-27T14:52:15.182Z,96879.66
2018-04-27T14:54:42.898Z,96886.99
2018-04-27T14:57:10.511Z,96879.67
2018-04-27T14:59:38.040Z,96880.42
2018-04-27T15:02:05.491Z,96877.17
2018-04-27T15:04:32.973Z,96866.30
2018-04-27T15:07:00.633Z,96869.28
2018-04-27T15:09:28.787Z,96875.50
2018-04-27T15:11:56.475Z,96870.39
2018-04-27T15:14:24.709Z,96864.55
2018-04-27T15:16:52.233Z,96865.19
2018-04-27T15:19:20.154Z,96865.05
2018-04-27T15:21:47.603Z,96865.00
2018-04-27T15:24:15.068Z,96861.84
2018-04-27T15:26:43.038Z,96857.64
2018-04-27T15:29:10.584Z,96865.55
2018-04-27T15:31:38.073Z,96845.86
2018-04-27T15:34:05.591Z,96850.83
2018-04-27T15:36:33.159Z,96852.16
2018-04-27T15:39:00.601Z,96849.96
2018-04-27T15:41:28.159Z,96843.75
2018-04-27T15:43:55.811Z,96845.61
2018-04-27T15:46:23.283Z,96845.35
2018-04-27T15:48:50.837Z,96849.28
2018-04-27T15:51:18.482Z,96853.91
2018-04-27T15:53:46.078Z,96850.58
2018-04-27T15:56:13.533Z,96844.28
2018-04-27T15:58:41.459Z,96851.36
2018-04-27T16:01:09.012Z,96838.32
2018-04-27T16:03:36.543Z,96842.92
2018-04-27T16:06:04.186Z,96841.35
2018-04-27T16:08:31.732Z,96839.06
2018-04-27T16:10:59.681Z,96831.41
2018-04-27T16:13:42.929Z,96820.23
2018-04-27T16:16:11.131Z,96821.04
2018-04-27T16:18:38.608Z,96823.80
2018-04-27T16:21:06.150Z,96826.18
2018-04-27T16:23:34.159Z,96825.05
2018-04-27T16:26:02.660Z,96827.63
2018-04-27T16:28:30.101Z,96829.63
2018-04-27T16:30:57.778Z,96829.24
2018-04-27T16:33:25.295Z,96828.70
2018-04-27T16:35:53.242Z,96826.94
2018-04-27T16:38:20.718Z,96822.23
2018-04-27T16:40:48.517Z,96827.33
2018-04-27T16:43:16.212Z,96833.59
2018-04-27T16:45:43.801Z,96838.50
2018-04-27T16:48:11.307Z,96836.34
2018-04-27T16:50:38.960Z,96836.56
2018-04-27T16:53:06.445Z,96840.27
2018-04-27T16:55:33.934Z,96838.52
2018-04-27T16:58:01.432Z,96837.70
2018-04-27T17:00:28.909Z,96838.49
2018-04-27T17:02:56.967Z,96841.84
2018-04-27T17:05:24.461Z,96838.31
2018-04-27T17:07:52.214Z,96839.29
2018-04-27T17:10:19.811Z,96841.66
2018-04-27T17:12:47.578Z,96842.23
2018-04-27T17:15:16.333Z,96836.16
2018-04-27T17:17:43.949Z,96846.34
2018-04-27T17:20:11.447Z,96841.66
2018-04-27T17:22:39.331Z,96840.86
2018-04-27T17:25:07.855Z,96844.57
2018-04-27T17:27:35.369Z,96848.63
2018-04-27T17:30:03.485Z,96850.78
2018-04-27T17:32:31.942Z,96853.31
2018-04-27T17:35:00.056Z,96855.86
2018-04-27T17:37:27.594Z,96860.13
2018-04-27T17:39:55.153Z,96863.67
2018-04-27T17:42:23.117Z,96867.75
2018-04-27T17:44:51.095Z,96874.45
2018-04-27T17:47:18.767Z,96872.46
2018-04-27T17:49:56.249Z,96871.23
2018-04-27T17:52:23.786Z,96877.67
2018-04-27T17:54:51.409Z,96881.02
2018-04-27T17:57:19.375Z,96885.52
2018-04-27T18:02:24.829Z,96891.13
2018-04-27T18:04:55.241Z,96892.95
2018-04-27T18:07:22.856Z,96891.55
2018-04-27T18:09:50.311Z,96902.09
2018-04-27T18:12:17.945Z,96897.94
2018-04-27T18:14:48.608Z,96899.53
2018-04-27T18:17:16.215Z,96902.97
2018-04-27T18:19:46.273Z,96908.41
2018-04-27T18:22:13.950Z,96904.64
2018-04-27T18:24:42.670Z,96908.66
2018-04-27T18:27:10.123Z,96907.43
2018-04-27T18:29:38.277Z,96914.84
2018-04-27T18:32:05.860Z,96912.71
2018-04-27T18:34:33.428Z,96924.03
2018-04-27T18:37:00.994Z,96922.34
2018-04-27T18:39:30.849Z,96930.73
2018-04-27T18:41:58.465Z,96927.92
2018-04-27T18:44:26.525Z,96933.16
2018-04-27T18:46:55.141Z,96942.05
2018-04-27T18:49:29.377Z,96943.38
2018-04-27T18:52:04.079Z,96950.02
2018-04-27T18:54:31.551Z,96953.95
2018-04-27T18:57:00.256Z,96957.25
2018-04-27T18:59:27.825Z,96964.41
2018-04-27T19:01:55.331Z,96967.51
2018-04-27T19:04:22.876Z,96966.41
2018-04-27T19:06:50.352Z,96978.31
2018-04-27T19:09:18.042Z,96979.89
2018-04-27T19:11:46.395Z,96991.37
2018-04-27T19:14:15.275Z,96987.31
2018-04-27T19:16:43.260Z,96985.44
2018-04-27T19:19:10.769Z,96994.30
2018-04-27T19:21:38.319Z,96997.64
2018-04-27T19:24:05.830Z,97000.79
2018-04-27T19:26:33.365Z,97003.89
2018-04-27T19:29:01.917Z,97008.66
2018-04-27T19:31:30.029Z,97010.45
2018-04-27T19:33:58.110Z,97019.77
2018-04-27T19:36:25.839Z,97016.59
2018-04-27T19:38:53.399Z,97020.30
2018-04-27T19:41:27.264Z,97015.84
2018-04-27T19:43:55.686Z,97021.81
2018-04-27T19:46:23.801Z,97022.06
2018-04-27T19:48:51.475Z,97025.94
2018-04-27T19:51:19.090Z,97027.88
2018-04-27T19:53:46.776Z,97022.42
2018-04-27T19:56:16.186Z,97029.45
2018-04-27T19:58:44.149Z,97012.66
2018-04-27T20:01:11.629Z,97034.39
2018-04-27T20:03:39.085Z,97044.69
2018-04-27T20:06:06.730Z,97054.13
2018-04-27T20:08:35.238Z,97045.88
2018-04-27T20:11:02.937Z,97055.88
2018-04-27T20:13:30.679Z,97055.69
2018-04-27T20:16:00.867Z,97061.50
2018-04-27T20:18:29.418Z,97060.41
2018-04-27T20:21:01.190Z,97064.39
2018-04-27T20:23:30.515Z,97062.27
2018-04-27T20:26:00.038Z,97064.93
2018-04-27T20:28:29.577Z,97070.92
2018-04-27T20:30:57.400Z,97080.35
2018-04-27T20:33:24.885Z,97083.33
2018-04-27T20:35:57.154Z,97085.77
2018-04-27T20:38:27.111Z,97091.86
2018-04-27T20:40:54.628Z,97095.94
2018-04-27T20:43:24.560Z,97098.44
2018-04-27T20:45:53.453Z,97098.75
2018-04-27T20:48:21.773Z,97108.08
2018-04-27T20:50:52.516Z,97107.94
2018-04-27T20:53:21.866Z,97118.50
2018-04-27T20:55:52.795Z,97124.06
2018-04-27T20:58:20.289Z,97123.22
2018-04-27T21:00:47.911Z,97122.31
2018-04-27T21:03:15.553Z,97131.35
2018-04-27T21:05:43.127Z,97124.05
2018-04-27T21:08:10.595Z,97131.35
2018-04-27T21:10:38.155Z,97138.16
